createdAt,value
2023-04-02T00:00:12.403Z,4.82
2023-04-02T00:03:10.083Z,4.80
2023-04-02T00:05:49.963Z,4.77
2023-04-02T00:08:39.053Z,4.77
2023-04-02T00:11:08.989Z,4.74
2023-04-02T00:13:46.714Z,4.70
2023-04-02T00:16:24.800Z,4.67
2023-04-02T00:18:56.238Z,4.61
2023-04-02T00:21:31.158Z,4.60
2023-04-02T00:24:10.487Z,4.59
2023-04-02T00:26:43.570Z,4.58
2023-04-02T00:29:13.371Z,4.56
2023-04-02T00:32:16.629Z,4.54
2023-04-02T00:34:45.053Z,4.54
2023-04-02T00:37:23.724Z,4.54
2023-04-02T00:39:58.495Z,4.52
2023-04-02T00:42:29.718Z,4.52
2023-04-02T00:44:58.934Z,4.53
2023-04-02T00:47:33.565Z,4.53
2023-04-02T00:50:07.961Z,4.52
2023-04-02T00:52:36.666Z,4.52
2023-04-02T00:55:36.623Z,4.54
2023-04-02T00:58:13.207Z,4.55
2023-04-02T01:00:41.466Z,4.54
2023-04-02T01:03:41.072Z,4.53
2023-04-02T01:06:15.612Z,4.52
2023-04-02T01:08:59.079Z,4.50
2023-04-02T01:11:42.672Z,4.46
2023-04-02T01:14:42.202Z,4.42
2023-04-02T01:17:42.662Z,4.38
2023-04-02T01:20:44.107Z,4.36
2023-04-02T01:23:16.827Z,4.33
2023-04-02T01:26:05.298Z,4.29
2023-04-02T01:28:54.060Z,4.25
2023-04-02T01:31:22.588Z,4.25
2023-04-02T01:33:50.269Z,4.25
2023-04-02T01:36:36.872Z,4.24
2023-04-02T01:39:47.805Z,4.22
2023-04-02T01:42:28.527Z,4.20
2023-04-02T01:45:26.116Z,4.18
2023-04-02T01:47:53.826Z,4.14
2023-04-02T01:50:38.890Z,4.15
2023-04-02T01:53:18.560Z,4.15
2023-04-02T01:56:01.120Z,4.15
2023-04-02T01:58:31.917Z,4.15
2023-04-02T02:01:07.098Z,4.14
2023-04-02T02:03:36.575Z,4.15
2023-04-02T02:06:06.028Z,4.13
2023-04-02T02:08:40.469Z,4.09
2023-04-02T02:11:14.692Z,4.07
2023-04-02T02:13:48.114Z,4.05
2023-04-02T02:16:18.006Z,4.05
2023-04-02T02:18:51.284Z,4.04
2023-04-02T02:21:50.476Z,4.03
2023-04-02T02:24:25.569Z,4.02
2023-04-02T02:27:09.050Z,4.00
2023-04-02T02:29:40.899Z,4.01
2023-04-02T02:32:12.883Z,4.02
2023-04-02T02:34:48.214Z,4.02
2023-04-02T02:37:23.858Z,3.99
2023-04-02T02:40:01.192Z,4.00
2023-04-02T02:42:40.604Z,3.99
2023-04-02T02:45:22.568Z,3.99
2023-04-02T02:47:54.598Z,3.99
2023-04-02T02:50:26.418Z,3.98
2023-04-02T02:52:57.337Z,3.98
2023-04-02T02:55:32.440Z,3.98
2023-04-02T02:58:04.622Z,3.99
2023-04-02T03:00:33.612Z,4.01
2023-04-02T03:03:04.430Z,4.01
2023-04-02T03:05:32.603Z,3.99
2023-04-02T03:08:02.400Z,3.98
2023-04-02T03:10:45.893Z,3.96
2023-04-02T03:13:14.839Z,3.93
2023-04-02T03:15:56.014Z,3.93
2023-04-02T03:18:32.843Z,3.92
2023-04-02T03:21:32.247Z,3.92
2023-04-02T03:24:17.921Z,3.91
2023-04-02T03:27:17.858Z,3.90
2023-04-02T03:30:21.504Z,3.91
2023-04-02T03:32:54.713Z,3.92
2023-04-02T03:35:27.424Z,3.93
2023-04-02T03:38:10.573Z,3.93
2023-04-02T03:40:49.727Z,3.93
2023-04-02T03:43:25.420Z,3.93
2023-04-02T03:46:05.582Z,3.91
2023-04-02T03:48:41.327Z,3.88
2023-04-02T03:51:24.432Z,3.87
2023-04-02T03:53:52.064Z,3.88
2023-04-02T03:56:29.258Z,3.87
2023-04-02T03:59:38.686Z,3.85
2023-04-02T04:02:31.854Z,3.82
2023-04-02T04:05:01.169Z,3.79
2023-04-02T04:07:40.223Z,3.79
2023-04-02T04:10:15.038Z,3.79
2023-04-02T04:12:48.340Z,3.79
2023-04-02T04:15:27.315Z,3.82
2023-04-02T04:18:29.729Z,3.82
2023-04-02T04:21:04.802Z,3.83
2023-04-02T04:23:36.141Z,3.84
2023-04-02T04:26:13.114Z,3.84
2023-04-02T04:29:05.757Z,3.86
2023-04-02T04:31:39.458Z,3.88
2023-04-02T04:34:36.679Z,3.89
2023-04-02T04:37:08.002Z,3.89
2023-04-02T04:39:44.380Z,3.90
2023-04-02T04:42:35.310Z,3.90
2023-04-02T04:45:29.283Z,3.92
2023-04-02T04:48:01.855Z,3.94
2023-04-02T04:50:38.937Z,3.94
2023-04-02T04:53:08.720Z,3.94
2023-04-02T04:55:36.489Z,3.93
2023-04-02T04:58:25.810Z,3.94
2023-04-02T05:00:57.085Z,3.94
2023-04-02T05:03:40.010Z,3.92
2023-04-02T05:06:33.882Z,3.92
2023-04-02T05:09:12.386Z,3.92
2023-04-02T05:11:52.453Z,3.93
2023-04-02T05:14:31.271Z,3.95
2023-04-02T05:17:09.184Z,3.95
2023-04-02T05:19:45.715Z,3.93
2023-04-02T05:22:45.300Z,3.90
2023-04-02T05:25:30.869Z,3.87
2023-04-02T05:28:21.399Z,3.87
2023-04-02T05:30:53.903Z,3.86
2023-04-02T05:33:28.088Z,3.86
2023-04-02T05:36:26.290Z,3.88
2023-04-02T05:38:56.950Z,3.90
2023-04-02T05:41:33.034Z,3.92
2023-04-02T05:44:14.518Z,3.92
2023-04-02T05:47:05.843Z,3.91
2023-04-02T05:49:39.238Z,3.93
2023-04-02T05:52:11.877Z,3.94
2023-04-02T05:54:50.736Z,3.94
2023-04-02T05:57:42.753Z,3.95
2023-04-02T06:00:22.079Z,3.96
2023-04-02T06:02:59.921Z,3.97
2023-04-02T06:05:38.210Z,3.97
2023-04-02T06:08:16.508Z,3.97
2023-04-02T06:10:55.368Z,3.96
2023-04-02T06:13:23.504Z,3.96
2023-04-02T06:15:51.260Z,4.00
2023-04-02T06:18:23.969Z,4.05
2023-04-02T06:20:52.634Z,4.09
2023-04-02T06:23:52.444Z,4.10
2023-04-02T06:26:41.932Z,4.12
2023-04-02T06:29:16.618Z,4.15
2023-04-02T06:32:01.352Z,4.16
2023-04-02T06:34:31.134Z,4.17
2023-04-02T06:37:18.323Z,4.20
2023-04-02T06:39:45.916Z,4.24
2023-04-02T06:42:19.024Z,4.24
2023-04-02T06:44:46.948Z,4.24
2023-04-02T06:47:30.891Z,4.22
2023-04-02T06:50:19.431Z,4.23
2023-04-02T06:52:51.326Z,4.23
2023-04-02T06:55:51.036Z,4.23
2023-04-02T06:58:20.099Z,4.21
2023-04-02T07:00:50.575Z,4.20
2023-04-02T07:03:25.856Z,4.19
2023-04-02T07:05:54.204Z,4.19
2023-04-02T07:08:21.949Z,4.20
2023-04-02T07:10:49.620Z,4.21
2023-04-02T07:13:20.174Z,4.25
2023-04-02T07:15:51.170Z,4.31
2023-04-02T07:18:35.283Z,4.36
2023-04-02T07:21:02.804Z,4.38
2023-04-02T07:23:30.638Z,4.40
2023-04-02T07:25:58.479Z,4.39
2023-04-02T07:28:26.297Z,4.35
2023-04-02T07:30:54.744Z,4.31
2023-04-02T07:33:25.864Z,4.25
2023-04-02T07:35:55.788Z,4.23
2023-04-02T07:38:24.324Z,4.22
2023-04-02T07:40:52.259Z,4.24
2023-04-02T07:43:19.844Z,4.26
2023-04-02T07:45:47.353Z,4.28
2023-04-02T07:48:15.188Z,4.27
2023-04-02T07:50:43.939Z,4.25
2023-04-02T07:53:30.242Z,4.24
2023-04-02T07:56:02.837Z,4.25
2023-04-02T07:58:31.957Z,4.25
2023-04-02T08:01:01.868Z,4.27
2023-04-02T08:03:29.589Z,4.29
2023-04-02T08:05:58.784Z,4.30
2023-04-02T08:08:26.453Z,4.27
2023-04-02T08:10:55.570Z,4.24
2023-04-02T08:13:23.576Z,4.23
2023-04-02T08:15:51.306Z,4.21
2023-04-02T08:18:23.363Z,4.20
2023-04-02T08:20:52.568Z,4.17
2023-04-02T08:23:20.744Z,4.14
2023-04-02T08:25:48.588Z,4.12
2023-04-02T08:28:17.186Z,4.09
2023-04-02T08:30:46.812Z,4.07
2023-04-02T08:33:15.642Z,4.07
2023-04-02T08:35:47.572Z,4.06
2023-04-02T08:38:17.493Z,4.07
2023-04-02T08:40:51.792Z,4.07
2023-04-02T08:43:41.857Z,4.08
2023-04-02T08:46:25.405Z,4.08
2023-04-02T08:49:01.346Z,4.08
2023-04-02T08:51:32.695Z,4.07
2023-04-02T08:54:08.819Z,4.10
2023-04-02T08:56:44.765Z,4.14
2023-04-02T08:59:28.578Z,4.16
2023-04-02T09:02:19.104Z,4.18
2023-04-02T09:04:46.839Z,4.22
2023-04-02T09:07:16.960Z,4.23
2023-04-02T09:09:48.598Z,4.25
2023-04-02T09:12:21.347Z,4.25
2023-04-02T09:15:25.060Z,4.24
2023-04-02T09:18:00.436Z,4.23
2023-04-02T09:20:29.069Z,4.23
2023-04-02T09:22:57.141Z,4.24
2023-04-02T09:25:28.408Z,4.26
2023-04-02T09:28:00.669Z,4.26
2023-04-02T09:30:46.837Z,4.27
2023-04-02T09:33:14.460Z,4.29
2023-04-02T09:35:58.204Z,4.29
2023-04-02T09:38:30.814Z,4.31
2023-04-02T09:41:18.626Z,4.34
2023-04-02T09:43:46.392Z,4.37
2023-04-02T09:46:26.066Z,4.36
2023-04-02T09:49:01.166Z,4.33
2023-04-02T09:51:34.929Z,4.30
2023-04-02T09:54:02.573Z,4.28
2023-04-02T09:56:31.963Z,4.28
2023-04-02T09:59:20.911Z,4.29
2023-04-02T10:01:54.464Z,4.31
2023-04-02T10:04:46.814Z,4.36
2023-04-02T10:07:37.769Z,4.42
2023-04-02T10:10:27.014Z,4.47
2023-04-02T10:13:02.508Z,4.51
2023-04-02T10:15:38.215Z,4.55
2023-04-02T10:18:45.184Z,4.59
2023-04-02T10:21:18.065Z,4.57
2023-04-02T10:23:45.844Z,4.56
2023-04-02T10:26:29.447Z,4.57
2023-04-02T10:29:11.585Z,4.59
2023-04-02T10:32:06.673Z,4.65
2023-04-02T10:35:07.482Z,4.71
2023-04-02T10:37:51.112Z,4.74
2023-04-02T10:40:24.582Z,4.78
2023-04-02T10:43:12.199Z,4.83
2023-04-02T10:45:47.636Z,4.90
2023-04-02T10:48:42.773Z,4.95
2023-04-02T10:51:32.661Z,5.05
2023-04-02T10:54:36.941Z,5.08
2023-04-02T10:57:30.999Z,5.14
2023-04-02T11:00:10.785Z,5.16
2023-04-02T11:02:46.695Z,5.15
2023-04-02T11:05:19.189Z,5.14
2023-04-02T11:07:55.736Z,5.14
2023-04-02T11:10:23.786Z,5.13
2023-04-02T11:12:57.836Z,5.12
2023-04-02T11:15:27.569Z,5.12
2023-04-02T11:17:55.193Z,5.14
2023-04-02T11:20:53.605Z,5.15
2023-04-02T11:23:21.352Z,5.17
2023-04-02T11:25:49.094Z,5.16
2023-04-02T11:28:32.655Z,5.19
2023-04-02T11:31:00.536Z,5.24
2023-04-02T11:33:38.276Z,5.26
2023-04-02T11:36:43.297Z,5.27
2023-04-02T11:39:17.462Z,5.33
2023-04-02T11:41:54.010Z,5.36
2023-04-02T11:44:24.081Z,5.42
2023-04-02T11:46:52.028Z,5.48
2023-04-02T11:49:37.683Z,5.51
2023-04-02T11:52:29.946Z,5.53
2023-04-02T11:55:24.664Z,5.56
2023-04-02T11:58:02.393Z,5.62
2023-04-02T12:01:07.835Z,5.69
2023-04-02T12:03:48.343Z,5.77
2023-04-02T12:06:31.865Z,5.82
2023-04-02T12:09:19.160Z,5.91
2023-04-02T12:11:47.662Z,6.00
2023-04-02T12:14:42.323Z,6.10
2023-04-02T12:17:31.521Z,6.22
2023-04-02T12:20:20.311Z,6.29
2023-04-02T12:22:51.768Z,6.34
2023-04-02T12:25:40.790Z,6.35
2023-04-02T12:28:11.300Z,6.38
2023-04-02T12:30:39.060Z,6.39
2023-04-02T12:33:37.114Z,6.38
2023-04-02T12:36:10.227Z,6.38
2023-04-02T12:38:55.072Z,6.37
2023-04-02T12:41:29.892Z,6.37
2023-04-02T12:44:06.393Z,6.36
2023-04-02T12:46:35.497Z,6.34
2023-04-02T12:49:16.076Z,6.35
2023-04-02T12:51:43.781Z,6.37
2023-04-02T12:54:17.478Z,6.39
2023-04-02T12:56:45.194Z,6.41
2023-04-02T12:59:40.167Z,6.43
2023-04-02T13:02:26.142Z,6.50
2023-04-02T13:05:02.285Z,6.62
2023-04-02T13:07:34.205Z,6.75
2023-04-02T13:10:06.251Z,6.86
2023-04-02T13:12:37.622Z,6.96
2023-04-02T13:15:27.202Z,7.03
2023-04-02T13:18:22.044Z,7.06
2023-04-02T13:20:58.777Z,7.08
2023-04-02T13:23:29.438Z,7.09
2023-04-02T13:26:11.435Z,7.08
2023-04-02T13:28:39.432Z,7.10
2023-04-02T13:31:17.962Z,7.13
2023-04-02T13:33:45.664Z,7.12
2023-04-02T13:36:14.761Z,7.13
2023-04-02T13:38:42.304Z,7.11
2023-04-02T13:41:32.613Z,7.07
2023-04-02T13:44:03.457Z,7.01
2023-04-02T13:46:33.914Z,7.01
2023-04-02T13:49:08.800Z,6.99
2023-04-02T13:51:44.633Z,6.99
2023-04-02T13:54:35.084Z,6.97
2023-04-02T13:57:03.237Z,6.96
2023-04-02T13:59:31.329Z,6.97
2023-04-02T14:02:06.685Z,6.96
2023-04-02T14:04:44.652Z,6.96
2023-04-02T14:07:29.034Z,6.95
2023-04-02T14:10:04.489Z,6.96
2023-04-02T14:12:37.776Z,6.97
2023-04-02T14:15:37.638Z,7.00
2023-04-02T14:18:21.320Z,7.03
2023-04-02T14:21:21.341Z,7.01
2023-04-02T14:24:16.484Z,6.99
2023-04-02T14:27:19.870Z,6.96
2023-04-02T14:30:03.571Z,6.90
2023-04-02T14:33:13.775Z,6.86
2023-04-02T14:35:47.088Z,6.85
2023-04-02T14:38:51.123Z,6.85
2023-04-02T14:41:33.449Z,6.90
2023-04-02T14:44:06.694Z,6.94
2023-04-02T14:46:38.371Z,6.95
2023-04-02T14:49:09.210Z,6.99
2023-04-02T14:51:36.771Z,7.01
2023-04-02T14:54:13.419Z,7.02
2023-04-02T14:57:00.869Z,7.02
2023-04-02T14:59:34.423Z,7.04
2023-04-02T15:02:15.095Z,7.04
2023-04-02T15:04:58.492Z,7.05
2023-04-02T15:07:36.067Z,7.04
2023-04-02T15:10:34.792Z,7.00
2023-04-02T15:13:08.466Z,6.99
2023-04-02T15:15:42.115Z,7.00
2023-04-02T15:18:14.705Z,6.98
2023-04-02T15:20:57.361Z,6.97
2023-04-02T15:23:31.996Z,6.97
2023-04-02T15:26:18.654Z,6.92
2023-04-02T15:29:29.429Z,6.88
2023-04-02T15:32:12.211Z,6.85
2023-04-02T15:34:46.850Z,6.86
2023-04-02T15:37:25.291Z,6.86
2023-04-02T15:40:16.360Z,6.84
2023-04-02T15:42:54.144Z,6.80
2023-04-02T15:45:29.135Z,6.75
2023-04-02T15:48:08.930Z,6.68
2023-04-02T15:50:46.751Z,6.63
2023-04-02T15:53:49.976Z,6.60
2023-04-02T15:56:57.162Z,6.56
2023-04-02T15:59:49.677Z,6.50
2023-04-02T16:02:33.172Z,6.46
2023-04-02T16:05:31.770Z,6.42
2023-04-02T16:08:15.791Z,6.40
2023-04-02T16:10:44.990Z,6.38
2023-04-02T16:13:33.541Z,6.38
2023-04-02T16:16:22.796Z,6.39
2023-04-02T16:19:16.614Z,6.38
2023-04-02T16:21:58.660Z,6.37
2023-04-02T16:24:26.248Z,6.37
2023-04-02T16:27:18.116Z,6.37
2023-04-02T16:29:56.419Z,6.39
2023-04-02T16:32:53.050Z,6.42
2023-04-02T16:38:20.862Z,6.58
2023-04-02T16:41:07.866Z,6.74
2023-04-02T16:43:58.963Z,6.91
2023-04-02T16:49:32.525Z,8.54
2023-04-02T16:52:16.121Z,8.97
2023-04-02T16:54:44.448Z,8.71
2023-04-02T16:57:37.138Z,8.42
2023-04-02T17:00:40.652Z,8.05
2023-04-02T17:03:40.558Z,7.67
2023-04-02T17:06:19.483Z,7.34
2023-04-02T17:08:57.218Z,7.10
2023-04-02T17:11:40.292Z,6.86
2023-04-02T17:14:26.420Z,6.66
2023-04-02T17:17:03.475Z,6.48
2023-04-02T17:19:32.552Z,6.33
2023-04-02T17:22:03.721Z,6.20
2023-04-02T17:24:51.210Z,6.08
2023-04-02T17:27:40.023Z,5.95
2023-04-02T17:30:29.842Z,5.83
2023-04-02T17:32:57.488Z,5.70
2023-04-02T17:35:52.941Z,5.60
2023-04-02T17:38:35.934Z,5.50
2023-04-02T17:41:29.492Z,5.39
2023-04-02T17:44:00.065Z,5.25
2023-04-02T17:46:35.898Z,5.13
2023-04-02T17:49:31.486Z,5.02
2023-04-02T17:52:02.111Z,4.90
2023-04-02T17:54:37.299Z,4.79
2023-04-02T17:57:12.285Z,4.71
2023-04-02T18:00:02.207Z,4.62
2023-04-02T18:02:51.219Z,4.53
2023-04-02T18:05:43.166Z,4.44
2023-04-02T18:08:27.347Z,4.36
2023-04-02T18:11:19.981Z,4.27
2023-04-02T18:14:00.897Z,4.19
2023-04-02T18:16:43.601Z,4.13
2023-04-02T18:19:43.037Z,4.05
2023-04-02T18:22:27.457Z,3.99
2023-04-02T18:25:15.052Z,3.92
2023-04-02T18:27:53.566Z,3.85
2023-04-02T18:30:35.257Z,3.80
2023-04-02T18:33:24.289Z,3.76
2023-04-02T18:36:18.405Z,3.70
2023-04-02T18:39:06.421Z,3.64
2023-04-02T18:41:44.782Z,3.57
2023-04-02T18:44:20.395Z,3.52
2023-04-02T18:46:55.272Z,3.47
2023-04-02T18:49:36.966Z,3.42
2023-04-02T18:52:12.805Z,3.36
2023-04-02T18:54:52.592Z,3.30
2023-04-02T18:57:28.580Z,3.25
2023-04-02T19:00:29.749Z,3.20
2023-04-02T19:03:20.871Z,3.15
2023-04-02T19:05:57.268Z,3.11
2023-04-02T19:09:04.963Z,3.08
2023-04-02T19:11:34.105Z,3.03
2023-04-02T19:14:21.505Z,2.99
2023-04-02T19:17:08.533Z,2.96
2023-04-02T19:19:39.248Z,2.92
2023-04-02T19:22:39.377Z,2.89
2023-04-02T19:25:29.885Z,2.86
2023-04-02T19:28:00.499Z,2.83
2023-04-02T19:31:12.730Z,2.80
2023-04-02T19:34:11.483Z,2.77
2023-04-02T19:37:15.742Z,2.73
2023-04-02T19:40:12.747Z,2.66
2023-04-02T19:42:47.089Z,2.62
2023-04-02T19:45:26.694Z,2.57
2023-04-02T19:47:56.364Z,2.54
2023-04-02T19:50:24.172Z,2.51
2023-04-02T19:52:51.881Z,2.47
2023-04-02T19:55:20.594Z,2.43
2023-04-02T19:57:48.398Z,2.38
2023-04-02T20:00:16.905Z,2.35
2023-04-02T20:02:44.503Z,2.33
2023-04-02T20:05:13.354Z,2.31
2023-04-02T20:07:40.871Z,2.28
2023-04-02T20:10:09.203Z,2.25
2023-04-02T20:12:36.836Z,2.22
2023-04-02T20:15:05.931Z,2.18
2023-04-02T20:17:33.546Z,2.17
2023-04-02T20:20:01.648Z,2.14
2023-04-02T20:22:29.435Z,2.11
2023-04-02T20:24:56.914Z,2.08
2023-04-02T20:27:24.610Z,2.05
2023-04-02T20:29:52.903Z,2.03
2023-04-02T20:32:22.190Z,2.00
2023-04-02T20:34:49.859Z,1.96
2023-04-02T20:37:17.406Z,1.94
2023-04-02T20:39:44.884Z,1.91
2023-04-02T20:42:14.316Z,1.88
2023-04-02T20:44:42.055Z,1.85
2023-04-02T20:47:10.614Z,1.84
2023-04-02T20:49:38.102Z,1.81
2023-04-02T20:52:05.878Z,1.79
2023-04-02T20:54:34.129Z,1.77
2023-04-02T20:57:02.981Z,1.73
2023-04-02T20:59:30.603Z,1.72
2023-04-02T21:01:58.211Z,1.71
2023-04-02T21:04:27.917Z,1.69
2023-04-02T21:06:57.052Z,1.66
2023-04-02T21:09:28.317Z,1.65
2023-04-02T21:11:55.936Z,1.64
2023-04-02T21:14:24.009Z,1.63
2023-04-02T21:16:51.690Z,1.62
2023-04-02T21:19:19.242Z,1.60
2023-04-02T21:21:47.114Z,1.58
2023-04-02T21:24:14.830Z,1.56
2023-04-02T21:26:42.555Z,1.53
2023-04-02T21:29:11.549Z,1.53
2023-04-02T21:31:48.270Z,1.52
2023-04-02T21:34:16.860Z,1.50
2023-04-02T21:36:47.128Z,1.48
2023-04-02T21:39:24.147Z,1.45
2023-04-02T21:41:53.216Z,1.39
2023-04-02T21:44:23.242Z,1.37
2023-04-02T21:46:53.139Z,1.34
2023-04-02T21:49:23.620Z,1.32
2023-04-02T21:51:52.571Z,1.29
2023-04-02T21:54:20.277Z,1.27
2023-04-02T21:56:48.836Z,1.25
2023-04-02T21:59:18.114Z,1.23
2023-04-02T22:01:50.904Z,1.20
2023-04-02T22:04:22.692Z,1.19
2023-04-02T22:06:52.105Z,1.16
2023-04-02T22:09:26.580Z,1.13
2023-04-02T22:11:59.428Z,1.10
2023-04-02T22:14:27.946Z,1.06
2023-04-02T22:16:55.577Z,1.04
2023-04-02T22:19:23.185Z,1.02
2023-04-02T22:21:51.659Z,1.00
2023-04-02T22:24:21.893Z,0.97
2023-04-02T22:26:54.118Z,0.95
2023-04-02T22:29:22.430Z,0.93
2023-04-02T22:31:51.617Z,0.90
2023-04-02T22:34:19.386Z,0.88
2023-04-02T22:36:47.341Z,0.85
2023-04-02T22:39:16.031Z,0.83
2023-04-02T22:41:43.607Z,0.80
2023-04-02T22:44:14.296Z,0.77
2023-04-02T22:46:41.912Z,0.76
2023-04-02T22:49:10.997Z,0.74
2023-04-02T22:51:38.510Z,0.74
2023-04-02T22:54:06.319Z,0.73
2023-04-02T22:56:35.417Z,0.72
2023-04-02T22:59:03.056Z,0.70
2023-04-02T23:01:33.735Z,0.69
2023-04-02T23:04:01.679Z,0.67
2023-04-02T23:06:29.341Z,0.65
2023-04-02T23:08:57.087Z,0.63
2023-04-02T23:11:27.561Z,0.62
2023-04-02T23:13:57.151Z,0.61
2023-04-02T23:16:27.252Z,0.58
2023-04-02T23:18:59.293Z,0.57
2023-04-02T23:21:27.068Z,0.54
2023-04-02T23:23:55.936Z,0.53
2023-04-02T23:26:30.594Z,0.53
2023-04-02T23:28:59.846Z,0.52
2023-04-02T23:31:28.244Z,0.51
2023-04-02T23:33:55.787Z,0.49
2023-04-02T23:36:25.098Z,0.45
2023-04-02T23:38:55.502Z,0.44
2023-04-02T23:41:26.887Z,0.44
2023-04-02T23:43:57.736Z,0.43
2023-04-02T23:46:26.868Z,0.41
2023-04-02T23:48:55.425Z,0.39
2023-04-02T23:51:24.089Z,0.36
2023-04-02T23:53:51.898Z,0.35
2023-04-02T23:56:20.730Z,0.35
2023-04-02T23:58:49.768Z,0.34
